createdAt,value
2023-04-17T00:01:19.103Z,2.60
2023-04-17T00:04:05.249Z,2.78
2023-04-17T00:06:54.089Z,2.60
2023-04-17T00:09:39.787Z,2.83
2023-04-17T00:12:25.020Z,2.20
2023-04-17T00:15:11.104Z,2.58
2023-04-17T00:17:56.601Z,3.35
2023-04-17T00:20:42.473Z,2.33
2023-04-17T00:23:27.891Z,2.50
2023-04-17T00:26:13.392Z,2.92
2023-04-17T00:28:59.076Z,2.60
2023-04-17T00:31:44.807Z,2.67
2023-04-17T00:34:30.974Z,3.38
2023-04-17T00:37:17.092Z,2.88
2023-04-17T00:40:03.367Z,3.60
2023-04-17T00:42:53.074Z,2.72
2023-04-17T00:45:39.484Z,2.95
2023-04-17T00:48:31.811Z,2.63
2023-04-17T00:51:17.814Z,2.72
2023-04-17T00:54:03.732Z,2.58
2023-04-17T00:56:51.462Z,3.13
2023-04-17T00:59:39.789Z,3.25
2023-04-17T01:02:26.306Z,2.47
2023-04-17T01:05:12.200Z,2.80
2023-04-17T01:07:58.288Z,3.25
2023-04-17T01:10:43.945Z,3.22
2023-04-17T01:13:29.663Z,3.08
2023-04-17T01:16:15.505Z,3.08
2023-04-17T01:19:01.519Z,3.40
2023-04-17T01:21:47.626Z,2.72
2023-04-17T01:24:33.707Z,2.80
2023-04-17T01:27:22.432Z,2.63
2023-04-17T01:30:08.948Z,2.70
2023-04-17T01:32:55.647Z,2.78
2023-04-17T01:35:41.411Z,3.03
2023-04-17T01:38:26.979Z,3.22
2023-04-17T01:41:12.570Z,3.78
2023-04-17T01:43:58.290Z,3.60
2023-04-17T01:46:43.710Z,3.40
2023-04-17T01:49:29.266Z,3.40
2023-04-17T01:52:17.767Z,3.60
2023-04-17T01:55:04.283Z,4.55
2023-04-17T01:57:50.349Z,7.13
2023-04-17T02:00:35.963Z,8.88
2023-04-17T02:03:21.550Z,9.55
2023-04-17T02:06:07.548Z,10.70
2023-04-17T02:08:53.524Z,12.32
2023-04-17T02:11:39.196Z,12.88
2023-04-17T02:14:25.053Z,13.07
2023-04-17T02:17:10.631Z,13.50
2023-04-17T02:19:56.656Z,16.17
2023-04-17T02:22:42.104Z,16.17
2023-04-17T02:25:28.605Z,16.38
2023-04-17T02:28:14.031Z,16.48
2023-04-17T02:30:59.632Z,16.20
2023-04-17T02:33:45.438Z,16.75
2023-04-17T02:36:31.316Z,17.08
2023-04-17T02:39:17.140Z,17.23
2023-04-17T02:42:03.193Z,18.75
2023-04-17T02:44:51.508Z,17.90
2023-04-17T02:47:37.814Z,19.27
2023-04-17T02:50:23.606Z,18.17
2023-04-17T02:53:09.507Z,17.40
2023-04-17T02:55:54.747Z,17.38
2023-04-17T02:58:40.501Z,17.48
2023-04-17T03:01:26.554Z,18.23
2023-04-17T03:04:13.136Z,18.10
2023-04-17T03:06:59.398Z,18.52
2023-04-17T03:09:47.439Z,17.48
2023-04-17T03:12:33.019Z,18.00
2023-04-17T03:15:18.158Z,18.77
2023-04-17T03:18:03.947Z,18.27
2023-04-17T03:20:49.424Z,18.38
2023-04-17T03:23:35.203Z,16.85
2023-04-17T03:26:21.756Z,18.63
2023-04-17T03:29:06.871Z,17.90
2023-04-17T03:31:52.798Z,18.33
2023-04-17T03:34:38.514Z,18.42
2023-04-17T03:37:23.871Z,18.33
2023-04-17T03:40:09.429Z,18.65
2023-04-17T03:42:54.898Z,18.65
2023-04-17T03:45:40.577Z,19.50
2023-04-17T03:48:26.327Z,18.95
2023-04-17T03:51:11.805Z,20.20
2023-04-17T03:53:57.601Z,20.95
2023-04-17T03:56:42.795Z,20.77
2023-04-17T03:59:28.644Z,20.95
2023-04-17T04:02:14.677Z,19.10
2023-04-17T04:05:00.515Z,21.33
2023-04-17T04:07:46.124Z,21.70
2023-04-17T04:10:32.682Z,22.42
2023-04-17T04:13:21.350Z,21.48
2023-04-17T04:16:07.827Z,22.92
2023-04-17T04:18:54.074Z,21.83
2023-04-17T04:21:39.555Z,23.00
2023-04-17T04:24:25.643Z,22.40
2023-04-17T04:27:13.030Z,23.98
2023-04-17T04:30:02.057Z,24.05
2023-04-17T04:32:47.743Z,23.77
2023-04-17T04:35:33.833Z,23.98
2023-04-17T04:38:19.010Z,24.30
2023-04-17T04:41:10.214Z,24.45
2023-04-17T04:43:55.734Z,24.00
2023-04-17T04:46:41.216Z,25.77
2023-04-17T04:49:26.684Z,25.98
2023-04-17T04:52:12.649Z,26.13
2023-04-17T04:54:58.074Z,27.55
2023-04-17T04:57:43.777Z,27.15
2023-04-17T05:00:29.546Z,27.40
2023-04-17T05:03:15.342Z,27.92
2023-04-17T05:06:00.975Z,27.33
2023-04-17T05:08:46.243Z,26.08
2023-04-17T05:11:33.481Z,28.30
2023-04-17T05:14:18.905Z,26.30
2023-04-17T05:17:04.583Z,28.80
2023-04-17T05:19:50.152Z,28.00
2023-04-17T05:22:36.019Z,27.00
2023-04-17T05:25:22.578Z,29.77
2023-04-17T05:28:08.271Z,28.38
2023-04-17T05:30:53.922Z,28.63
2023-04-17T05:33:39.371Z,28.08
2023-04-17T05:36:24.775Z,28.73
2023-04-17T05:39:10.621Z,28.73
2023-04-17T05:41:56.468Z,31.42
2023-04-17T05:44:42.508Z,27.92
2023-04-17T05:47:28.564Z,27.70
2023-04-17T05:50:14.037Z,27.85
2023-04-17T05:52:59.874Z,28.77
2023-04-17T05:55:45.404Z,27.38
2023-04-17T05:58:30.761Z,28.63
2023-04-17T06:01:18.275Z,28.98
2023-04-17T06:04:03.897Z,28.13
2023-04-17T06:06:49.953Z,30.25
2023-04-17T06:09:36.885Z,28.42
2023-04-17T06:12:22.019Z,28.73
2023-04-17T06:15:09.351Z,28.50
2023-04-17T06:17:54.973Z,29.17
2023-04-17T06:20:41.340Z,27.60
2023-04-17T06:23:26.563Z,27.70
2023-04-17T06:26:12.662Z,27.27
2023-04-17T06:28:58.574Z,26.15
2023-04-17T06:31:44.324Z,23.55
2023-04-17T06:34:29.717Z,23.88
2023-04-17T06:37:15.748Z,22.55
2023-04-17T06:40:01.230Z,21.98
2023-04-17T06:42:46.843Z,21.38
2023-04-17T06:45:35.715Z,23.67
2023-04-17T06:48:21.006Z,22.73
2023-04-17T06:51:07.545Z,21.35
2023-04-17T06:53:53.373Z,22.30
2023-04-17T06:56:39.287Z,22.33
2023-04-17T06:59:24.686Z,24.05
2023-04-17T07:02:10.421Z,23.63
2023-04-17T07:04:56.106Z,24.63
2023-04-17T07:07:42.069Z,25.13
2023-04-17T07:10:27.580Z,25.75
2023-04-17T07:13:12.764Z,27.27
2023-04-17T07:15:59.349Z,26.10
2023-04-17T07:18:44.983Z,24.80
2023-04-17T07:21:30.936Z,25.55
2023-04-17T07:24:16.829Z,25.50
2023-04-17T07:27:04.041Z,24.13
2023-04-17T07:29:54.636Z,24.10
2023-04-17T07:32:40.347Z,22.08
2023-04-17T07:35:26.112Z,21.00
2023-04-17T07:38:11.415Z,20.27
2023-04-17T07:40:56.855Z,18.98
2023-04-17T07:43:42.285Z,17.80
2023-04-17T07:46:27.874Z,17.73
2023-04-17T07:49:13.653Z,17.85
2023-04-17T07:52:00.126Z,15.98
2023-04-17T07:54:46.005Z,13.55
2023-04-17T07:57:32.899Z,12.05
2023-04-17T08:00:19.153Z,12.55
2023-04-17T08:03:06.204Z,12.55
2023-04-17T08:05:54.656Z,10.65
2023-04-17T08:08:40.767Z,10.00
2023-04-17T08:11:26.340Z,8.90
2023-04-17T08:14:12.134Z,8.18
2023-04-17T08:16:58.251Z,7.30
2023-04-17T08:19:43.597Z,5.35
2023-04-17T08:22:29.341Z,6.47
2023-04-17T08:25:15.013Z,5.22
2023-04-17T08:28:00.242Z,5.32
2023-04-17T08:30:45.898Z,5.05
2023-04-17T08:33:31.994Z,4.50
2023-04-17T08:36:17.586Z,4.70
2023-04-17T08:39:04.652Z,4.93
2023-04-17T08:42:02.993Z,4.30
2023-04-17T08:44:48.797Z,4.53
2023-04-17T08:47:34.989Z,4.18
2023-04-17T08:50:22.729Z,4.07
2023-04-17T08:53:08.917Z,4.18
2023-04-17T08:55:55.412Z,5.25
2023-04-17T08:58:41.381Z,4.55
2023-04-17T09:01:29.773Z,4.80
2023-04-17T09:04:35.109Z,5.60
2023-04-17T09:07:29.783Z,4.50
2023-04-17T09:10:16.326Z,4.25
2023-04-17T09:13:01.845Z,5.05
2023-04-17T09:16:03.598Z,4.75
2023-04-17T09:18:49.640Z,5.32
2023-04-17T09:21:35.804Z,4.43
2023-04-17T09:24:34.786Z,5.50
2023-04-17T09:27:30.378Z,5.75
2023-04-17T09:30:16.633Z,5.22
2023-04-17T09:33:06.792Z,5.50
2023-04-17T09:35:52.636Z,6.00
2023-04-17T09:38:40.860Z,5.82
2023-04-17T09:41:27.821Z,5.95
2023-04-17T09:44:27.975Z,7.03
2023-04-17T09:47:16.092Z,5.45
2023-04-17T09:50:03.337Z,6.55
2023-04-17T09:52:53.761Z,6.07
2023-04-17T09:55:41.653Z,6.50
2023-04-17T09:58:27.288Z,7.05
2023-04-17T10:01:13.994Z,6.13
2023-04-17T10:04:00.702Z,4.95
2023-04-17T10:06:47.865Z,4.80
2023-04-17T10:09:33.278Z,4.70
2023-04-17T10:12:21.161Z,4.75
2023-04-17T10:15:08.637Z,5.20
2023-04-17T10:17:56.252Z,4.97
2023-04-17T10:20:45.021Z,3.90
2023-04-17T10:23:36.708Z,4.40
2023-04-17T10:26:25.133Z,3.05
2023-04-17T10:29:12.760Z,2.33
2023-04-17T10:32:10.944Z,2.78
2023-04-17T10:34:58.301Z,2.30
2023-04-17T10:37:49.968Z,3.13
2023-04-17T10:40:36.717Z,3.10
2023-04-17T10:43:25.062Z,3.42
2023-04-17T10:46:14.892Z,3.20
2023-04-17T10:49:05.021Z,2.42
2023-04-17T10:51:52.375Z,3.03
2023-04-17T10:55:11.160Z,3.63
2023-04-17T10:57:58.655Z,2.90
2023-04-17T11:00:51.840Z,3.00
2023-04-17T11:03:38.531Z,2.83
2023-04-17T11:06:31.608Z,2.78
2023-04-17T11:09:21.277Z,2.95
2023-04-17T11:12:06.955Z,3.05
2023-04-17T11:14:52.277Z,3.40
2023-04-17T11:17:40.681Z,3.50
2023-04-17T11:20:28.314Z,3.33
2023-04-17T11:23:15.832Z,3.50
2023-04-17T11:26:01.668Z,4.03
2023-04-17T11:28:48.205Z,3.38
2023-04-17T11:31:40.867Z,3.33
2023-04-17T11:34:27.485Z,3.40
2023-04-17T11:37:15.193Z,3.97
2023-04-17T11:40:10.128Z,3.60
2023-04-17T11:42:55.854Z,4.15
2023-04-17T11:45:46.115Z,3.55
2023-04-17T11:48:34.593Z,3.85
2023-04-17T11:51:20.442Z,4.40
2023-04-17T11:54:06.244Z,4.63
2023-04-17T11:57:18.504Z,3.88
2023-04-17T12:00:15.171Z,3.63
2023-04-17T12:03:03.081Z,3.35
2023-04-17T12:06:02.432Z,3.53
2023-04-17T12:08:53.721Z,3.97
2023-04-17T12:11:39.354Z,4.18
2023-04-17T12:14:26.432Z,3.97
2023-04-17T12:17:12.187Z,4.93
2023-04-17T12:20:02.550Z,4.10
2023-04-17T12:22:48.375Z,4.57
2023-04-17T12:25:34.128Z,4.43
2023-04-17T12:28:20.251Z,4.40
2023-04-17T12:31:06.187Z,5.13
2023-04-17T12:33:52.686Z,4.22
2023-04-17T12:36:39.306Z,4.82
2023-04-17T12:39:25.857Z,4.78
2023-04-17T12:42:11.676Z,5.10
2023-04-17T12:44:56.978Z,4.65
2023-04-17T12:47:43.196Z,4.07
2023-04-17T12:50:29.116Z,4.50
2023-04-17T12:53:15.766Z,5.47
2023-04-17T12:56:01.102Z,4.78
2023-04-17T12:58:46.835Z,4.95
2023-04-17T13:01:32.694Z,4.80
2023-04-17T13:04:18.398Z,4.53
2023-04-17T13:07:04.275Z,4.03
2023-04-17T13:09:49.627Z,4.70
2023-04-17T13:12:35.406Z,4.40
2023-04-17T13:15:21.875Z,4.53
2023-04-17T13:18:08.265Z,4.70
2023-04-17T13:20:54.998Z,4.80
2023-04-17T13:23:40.681Z,4.32
2023-04-17T13:26:26.017Z,4.00
2023-04-17T13:29:12.127Z,4.45
2023-04-17T13:31:58.092Z,4.00
2023-04-17T13:34:43.962Z,3.88
2023-04-17T13:37:29.517Z,2.67
2023-04-17T13:40:17.193Z,3.92
2023-04-17T13:43:03.174Z,3.55
2023-04-17T13:45:49.911Z,3.55
2023-04-17T13:48:35.964Z,3.00
2023-04-17T13:51:21.843Z,3.22
2023-04-17T13:54:08.938Z,3.35
2023-04-17T13:56:54.844Z,3.30
2023-04-17T13:59:40.443Z,2.75
2023-04-17T14:02:25.982Z,2.45
2023-04-17T14:05:11.902Z,2.78
2023-04-17T14:07:57.535Z,2.78
2023-04-17T14:10:42.925Z,2.58
2023-04-17T14:13:28.429Z,3.13
2023-04-17T14:16:14.164Z,3.50
2023-04-17T14:19:06.658Z,3.20
2023-04-17T14:21:59.333Z,2.92
2023-04-17T14:24:45.124Z,2.65
2023-04-17T14:27:30.764Z,2.80
2023-04-17T14:30:15.938Z,2.67
2023-04-17T14:33:01.675Z,2.92
2023-04-17T14:35:47.174Z,3.28
2023-04-17T14:38:53.463Z,2.72
2023-04-17T14:41:39.270Z,3.10
2023-04-17T14:44:25.288Z,3.50
2023-04-17T14:47:13.783Z,3.50
2023-04-17T14:49:59.747Z,5.13
2023-04-17T14:52:46.545Z,3.97
2023-04-17T14:55:32.340Z,4.32
2023-04-17T14:58:17.761Z,5.10
2023-04-17T15:01:03.852Z,5.95
2023-04-17T15:03:49.574Z,5.20
2023-04-17T15:06:35.613Z,5.13
2023-04-17T15:09:20.874Z,4.75
2023-04-17T15:12:06.610Z,5.32
2023-04-17T15:14:52.027Z,5.43
2023-04-17T15:17:38.550Z,5.72
2023-04-17T15:20:28.422Z,5.28
2023-04-17T15:23:14.079Z,5.53
2023-04-17T15:26:01.385Z,5.45
2023-04-17T15:28:47.109Z,6.40
2023-04-17T15:31:34.305Z,6.30
2023-04-17T15:34:19.815Z,6.60
2023-04-17T15:37:09.241Z,6.15
2023-04-17T15:39:54.625Z,7.25
2023-04-17T15:42:40.283Z,6.88
2023-04-17T15:45:26.347Z,6.85
2023-04-17T15:48:11.926Z,6.15
2023-04-17T15:50:57.291Z,6.63
2023-04-17T15:53:43.053Z,6.68
2023-04-17T15:56:28.919Z,7.35
2023-04-17T15:59:14.536Z,7.10
2023-04-17T16:02:01.291Z,7.30
2023-04-17T16:04:46.973Z,6.85
2023-04-17T16:07:33.122Z,6.82
2023-04-17T16:10:19.074Z,7.40
2023-04-17T16:13:04.898Z,8.32
2023-04-17T16:15:51.861Z,7.93
2023-04-17T16:18:37.681Z,7.68
2023-04-17T16:21:23.084Z,7.65
2023-04-17T16:24:08.956Z,8.10
2023-04-17T16:26:57.422Z,7.75
2023-04-17T16:29:42.848Z,8.30
2023-04-17T16:32:28.390Z,7.57
2023-04-17T16:35:13.742Z,8.00
2023-04-17T16:38:01.437Z,7.53
2023-04-17T16:40:47.059Z,7.93
2023-04-17T16:43:32.348Z,8.02
2023-04-17T16:46:23.952Z,7.75
2023-04-17T16:49:14.173Z,8.18
2023-04-17T16:51:59.839Z,7.95
2023-04-17T16:54:45.413Z,7.50
2023-04-17T16:57:32.093Z,7.30
2023-04-17T17:00:17.656Z,8.75
2023-04-17T17:03:03.243Z,8.23
2023-04-17T17:05:49.495Z,7.70
2023-04-17T17:08:34.925Z,8.70
2023-04-17T17:11:21.770Z,7.88
2023-04-17T17:14:07.657Z,8.20
2023-04-17T17:16:53.542Z,8.82
2023-04-17T17:19:39.506Z,8.68
2023-04-17T17:22:25.392Z,8.98
2023-04-17T17:25:11.149Z,8.43
2023-04-17T17:27:57.179Z,8.85
2023-04-17T17:30:42.716Z,7.90
2023-04-17T17:33:28.707Z,8.13
2023-04-17T17:36:14.350Z,8.13
2023-04-17T17:39:00.414Z,8.48
2023-04-17T17:41:47.345Z,9.88
2023-04-17T17:44:32.986Z,9.25
2023-04-17T17:47:18.533Z,9.20
2023-04-17T17:50:04.642Z,11.23
2023-04-17T17:52:50.246Z,10.88
2023-04-17T17:55:38.495Z,10.90
2023-04-17T17:58:24.453Z,10.80
2023-04-17T18:01:10.070Z,10.70
2023-04-17T18:03:56.311Z,11.70
2023-04-17T18:06:41.942Z,9.80
2023-04-17T18:09:27.712Z,10.32
2023-04-17T18:12:13.192Z,9.20
2023-04-17T18:14:58.589Z,10.07
2023-04-17T18:17:44.192Z,12.13
2023-04-17T18:20:29.727Z,10.82
2023-04-17T18:23:15.268Z,11.38
2023-04-17T18:26:02.270Z,10.65
2023-04-17T18:28:48.446Z,11.48
2023-04-17T18:31:33.807Z,12.00
2023-04-17T18:34:23.327Z,11.80
2023-04-17T18:37:10.042Z,12.82
2023-04-17T18:39:55.696Z,11.88
2023-04-17T18:42:44.316Z,12.63
2023-04-17T18:45:33.371Z,13.05
2023-04-17T18:48:19.495Z,11.77
2023-04-17T18:51:12.697Z,11.73
2023-04-17T18:56:44.915Z,12.52
2023-04-17T18:59:30.991Z,12.90
2023-04-17T19:02:16.851Z,13.68
2023-04-17T19:05:02.606Z,14.02
2023-04-17T19:07:48.602Z,13.43
2023-04-17T19:10:34.706Z,12.80
2023-04-17T19:13:20.650Z,12.85
2023-04-17T19:16:06.525Z,13.80
2023-04-17T19:18:52.352Z,13.13
2023-04-17T19:21:37.843Z,13.90
2023-04-17T19:24:23.450Z,14.65
2023-04-17T19:27:09.493Z,14.80
2023-04-17T19:29:57.746Z,13.90
2023-04-17T19:32:43.444Z,14.00
2023-04-17T19:35:29.429Z,13.40
2023-04-17T19:38:17.337Z,13.80
2023-04-17T19:41:15.317Z,13.40
2023-04-17T19:44:00.741Z,14.90
2023-04-17T19:46:46.096Z,14.95
2023-04-17T19:49:31.686Z,15.75
2023-04-17T19:52:17.452Z,13.63
2023-04-17T19:55:04.750Z,14.77
2023-04-17T19:57:52.263Z,14.52
2023-04-17T20:00:37.928Z,14.13
2023-04-17T20:03:24.645Z,15.88
2023-04-17T20:06:11.222Z,15.43
2023-04-17T20:08:58.529Z,14.95
2023-04-17T20:11:44.396Z,14.15
2023-04-17T20:14:29.560Z,14.27
2023-04-17T20:17:15.573Z,14.90
2023-04-17T20:20:03.770Z,14.07
2023-04-17T20:22:49.925Z,16.85
2023-04-17T20:25:35.511Z,16.33
2023-04-17T20:28:21.604Z,17.27
2023-04-17T20:31:07.882Z,16.10
2023-04-17T20:33:53.589Z,16.95
2023-04-17T20:36:39.290Z,18.00
2023-04-17T20:39:25.981Z,18.95
2023-04-17T20:42:11.456Z,18.30
2023-04-17T20:44:56.946Z,17.42
2023-04-17T20:47:56.075Z,17.83
2023-04-17T20:50:43.139Z,17.42
2023-04-17T20:53:28.654Z,17.90
2023-04-17T20:56:13.902Z,17.77
2023-04-17T20:58:59.675Z,18.65
2023-04-17T21:01:45.111Z,16.67
2023-04-17T21:04:30.777Z,17.23
2023-04-17T21:07:16.809Z,18.55
2023-04-17T21:10:02.929Z,18.00
2023-04-17T21:12:48.822Z,18.80
2023-04-17T21:15:34.449Z,19.45
2023-04-17T21:18:20.359Z,18.50
2023-04-17T21:21:06.498Z,20.77
2023-04-17T21:23:52.280Z,20.20
2023-04-17T21:26:38.171Z,20.30
2023-04-17T21:29:27.919Z,19.92
2023-04-17T21:32:13.744Z,20.88
2023-04-17T21:34:59.983Z,21.23
2023-04-17T21:37:45.895Z,23.83
2023-04-17T21:40:33.655Z,22.48
2023-04-17T21:43:19.613Z,22.90
2023-04-17T21:46:10.203Z,21.55
2023-04-17T21:48:56.015Z,21.73
2023-04-17T21:51:41.696Z,21.60
2023-04-17T21:54:27.803Z,21.92
2023-04-17T21:57:13.684Z,21.08
2023-04-17T21:59:59.415Z,20.35
2023-04-17T22:02:45.335Z,22.27
2023-04-17T22:05:40.573Z,23.00
2023-04-17T22:08:29.009Z,21.88
2023-04-17T22:11:14.592Z,21.63
2023-04-17T22:14:00.820Z,21.55
2023-04-17T22:16:46.797Z,22.20
2023-04-17T22:19:32.979Z,21.02
2023-04-17T22:22:18.390Z,21.40
2023-04-17T22:25:04.483Z,22.23
2023-04-17T22:27:50.406Z,23.23
2023-04-17T22:30:36.302Z,21.65
2023-04-17T22:33:21.948Z,21.70
2023-04-17T22:36:07.811Z,22.05
2023-04-17T22:38:53.204Z,21.67
2023-04-17T22:41:38.862Z,21.85
2023-04-17T22:44:24.562Z,22.65
2023-04-17T22:47:10.609Z,21.80
2023-04-17T22:49:56.728Z,21.48
2023-04-17T22:52:43.189Z,21.70
2023-04-17T22:55:32.612Z,20.75
2023-04-17T22:58:18.202Z,21.17
2023-04-17T23:01:05.906Z,23.33
2023-04-17T23:03:58.675Z,22.80
2023-04-17T23:06:58.279Z,22.23
2023-04-17T23:09:44.779Z,20.38
2023-04-17T23:12:31.839Z,21.08
2023-04-17T23:15:17.356Z,20.88
2023-04-17T23:18:03.297Z,20.77
2023-04-17T23:20:49.912Z,21.05
2023-04-17T23:23:35.165Z,20.42
2023-04-17T23:26:20.743Z,19.95
2023-04-17T23:29:06.641Z,20.30
2023-04-17T23:31:52.323Z,17.77
2023-04-17T23:34:38.059Z,19.23
2023-04-17T23:37:23.908Z,19.85
2023-04-17T23:40:09.758Z,19.73
2023-04-17T23:42:55.675Z,20.30
2023-04-17T23:45:41.252Z,20.90
2023-04-17T23:48:27.067Z,19.85
2023-04-17T23:51:12.533Z,19.95
2023-04-17T23:54:00.377Z,19.05
2023-04-17T23:56:46.212Z,18.63
2023-04-17T23:59:31.528Z,19.92
